Time;durP1;ratioP1;P1;durP2;ratioP2;P2;SDS_P1;SDS_P2;PMS_P1;PMS_P2;Temp;Humidity;BMP_temperature;BMP_pressure;BME280_temperature;BME280_humidity;BME280_pressure;Samples;Min_cycle;Max_cycle;Signal;HPM_P1;HPM_P2
2023/03/07 00:02:22;;;;;;;0.40;0.30;;;;;;;19.31;40.01;99796.66;4984037;28;97161;-76
2023/03/07 00:04:49;;;;;;;0.40;0.38;;;;;;;19.28;39.89;99792.44;4992893;28;97801;-75
2023/03/07 00:07:18;;;;;;;0.43;0.30;;;;;;;19.29;39.94;99796.00;4991041;28;96675;-75
2023/03/07 00:09:44;;;;;;;0.50;0.35;;;;;;;19.32;39.95;99790.19;4994198;28;96754;-75
2023/03/07 00:12:11;;;;;;;0.30;0.30;;;;;;;19.31;39.78;99786.63;4987052;28;96945;-75
2023/03/07 00:14:37;;;;;;;0.60;0.40;;;;;;;19.31;39.59;99792.06;4993792;28;97463;-75
2023/03/07 00:17:04;;;;;;;0.30;0.30;;;;;;;19.31;39.55;99792.06;4990938;28;97507;-76
2023/03/07 00:19:31;;;;;;;0.52;0.45;;;;;;;19.30;39.79;99789.53;4994137;28;96722;-75
2023/03/07 00:21:57;;;;;;;0.65;0.40;;;;;;;19.31;39.85;99786.63;4989407;28;96704;-76
2023/03/07 00:24:24;;;;;;;0.50;0.43;;;;;;;19.32;39.62;99787.47;4985789;28;97836;-75
2023/03/07 00:26:50;;;;;;;0.50;0.47;;;;;;;19.32;39.73;99787.47;4991433;28;97097;-75
2023/03/07 00:29:17;;;;;;;0.38;0.30;;;;;;;19.33;39.65;99784.59;4989646;28;96814;-76
2023/03/07 00:31:43;;;;;;;0.50;0.32;;;;;;;19.35;39.54;99787.13;4989089;28;96704;-76
2023/03/07 00:34:10;;;;;;;0.32;0.30;;;;;;;19.35;40.00;99781.66;4990731;28;97171;-75
2023/03/07 00:36:36;;;;;;;0.40;0.30;;;;;;;19.36;39.78;99777.91;4987285;28;96620;-76
2023/03/07 00:39:03;;;;;;;0.52;0.40;;;;;;;19.38;39.60;99780.44;4993850;28;98323;-75
2023/03/07 00:41:30;;;;;;;0.47;0.40;;;;;;;19.37;39.83;99782.31;4988560;28;96708;-75
2023/03/07 00:43:56;;;;;;;1.30;0.38;;;;;;;19.36;39.82;99777.91;4979511;28;97542;-75
2023/03/07 00:46:24;;;;;;;0.30;0.30;;;;;;;19.38;40.01;99783.16;4989839;28;97848;-76
2023/03/07 00:48:52;;;;;;;0.30;0.30;;;;;;;19.35;39.60;99779.78;4983951;28;96749;-75
2023/03/07 00:51:20;;;;;;;0.75;0.32;;;;;;;19.33;39.79;99768.25;4972319;28;96745;-76
2023/03/07 00:53:47;;;;;;;0.32;0.28;;;;;;;19.34;39.91;99777.25;4989913;28;96855;-75
2023/03/07 00:56:16;;;;;;;0.30;0.30;;;;;;;19.33;39.64;99779.13;4981267;28;96900;-75
2023/03/07 00:58:43;;;;;;;0.35;0.30;;;;;;;19.34;39.88;99777.25;4988116;28;96739;-76
2023/03/07 01:01:13;;;;;;;0.70;0.40;;;;;;;19.35;39.64;99787.13;4992023;28;97072;-75
2023/03/07 01:03:40;;;;;;;0.50;0.40;;;;;;;19.32;39.91;99772.00;4973514;28;100507;-75
2023/03/07 01:06:09;;;;;;;0.57;0.30;;;;;;;19.29;39.63;99768.78;4973441;28;97838;-75
2023/03/07 01:08:35;;;;;;;0.60;0.40;;;;;;;19.29;39.66;99763.34;4972232;28;96464;-75
2023/03/07 01:11:04;;;;;;;0.35;0.30;;;;;;;19.26;39.90;99772.75;4990430;28;96944;-73
2023/03/07 01:13:32;;;;;;;0.28;0.28;;;;;;;19.28;40.07;99765.22;4983374;28;100339;-74
2023/03/07 01:16:27;;;;;;;0.40;0.32;;;;;;;19.29;39.77;99763.34;4987945;28;99051;-74
2023/03/07 01:18:57;;;;;;;0.70;0.30;;;;;;;19.28;39.68;99761.66;4983746;28;96818;-74
2023/03/07 01:21:28;;;;;;;0.20;0.20;;;;;;;19.26;39.59;99767.28;4983778;28;96836;-74
2023/03/07 01:23:56;;;;;;;0.40;0.30;;;;;;;19.26;39.85;99764.56;4989958;28;96788;-74
2023/03/07 01:26:26;;;;;;;0.68;0.40;;;;;;;19.24;39.69;99769.38;4988326;28;100133;-74
2023/03/07 01:28:55;;;;;;;0.40;0.38;;;;;;;19.24;39.54;99758.47;4986708;28;97182;-74
2023/03/07 01:31:23;;;;;;;0.50;0.40;;;;;;;19.22;39.79;99752.38;4986033;28;97241;-75
2023/03/07 01:33:52;;;;;;;0.38;0.30;;;;;;;19.22;40.04;99752.38;4984257;28;96626;-74
2023/03/07 01:36:29;;;;;;;0.30;0.20;;;;;;;19.21;39.79;99753.41;4985633;28;98576;-74
2023/03/07 01:39:13;;;;;;;0.45;0.32;;;;;;;19.15;39.69;99743.28;4986236;28;96765;-74
2023/03/07 01:41:50;;;;;;;0.43;0.30;;;;;;;19.13;40.09;99747.25;4990558;28;96940;-74
2023/03/07 01:44:24;;;;;;;0.60;0.40;;;;;;;19.13;39.78;99747.25;4988058;28;99609;-74
2023/03/07 01:46:56;;;;;;;0.50;0.30;;;;;;;19.12;40.02;99740.94;4981674;28;96920;-74
2023/03/07 01:49:34;;;;;;;0.50;0.32;;;;;;;19.10;39.89;99734.00;4985963;28;97277;-75
2023/03/07 01:52:20;;;;;;;0.35;0.30;;;;;;;19.09;40.22;99737.78;4968393;28;96761;-74
2023/03/07 01:54:55;;;;;;;0.32;0.30;;;;;;;19.09;39.74;99732.31;4989787;28;96852;-75
2023/03/07 01:57:27;;;;;;;0.35;0.30;;;;;;;19.08;39.97;99734.19;4981816;28;98439;-74
2023/03/07 01:59:57;;;;;;;0.45;0.22;;;;;;;19.07;39.85;99731.69;4985552;28;96737;-75
2023/03/07 02:02:25;;;;;;;0.75;0.40;;;;;;;19.02;40.09;99721.38;4971979;28;96730;-74
2023/03/07 02:04:58;;;;;;;0.20;0.20;;;;;;;19.02;40.08;99713.19;4975528;28;99280;-74
2023/03/07 02:07:30;;;;;;;0.45;0.30;;;;;;;18.99;40.29;99708.13;4982285;28;98943;-74
2023/03/07 02:09:57;;;;;;;0.40;0.25;;;;;;;18.96;39.99;99714.81;4988013;28;96601;-74
2023/03/07 02:12:23;;;;;;;0.30;0.30;;;;;;;18.96;40.38;99706.66;4990031;28;96788;-75
2023/03/07 02:14:51;;;;;;;0.20;0.20;;;;;;;18.93;40.23;99712.47;4990726;28;96743;-75
2023/03/07 02:17:18;;;;;;;0.80;0.35;;;;;;;18.93;39.98;99698.03;4989766;28;98811;-75
2023/03/07 02:20:19;;;;;;;0.30;0.30;;;;;;;18.95;40.09;99698.66;4988853;28;96670;-74
2023/03/07 02:22:48;;;;;;;0.30;0.30;;;;;;;18.96;40.44;99698.47;4989539;28;97475;-74
2023/03/07 02:25:39;;;;;;;0.25;0.25;;;;;;;18.97;40.06;99696.59;4987195;28;96706;-75
2023/03/07 02:28:10;;;;;;;0.60;0.30;;;;;;;18.99;40.17;99699.97;4974382;28;98059;-75
2023/03/07 02:30:38;;;;;;;0.20;0.20;;;;;;;18.99;40.17;99692.66;4989754;28;97794;-74
2023/03/07 02:33:04;;;;;;;0.43;0.30;;;;;;;19.01;40.25;99689.75;4993063;28;96880;-74
2023/03/07 02:35:31;;;;;;;0.30;0.22;;;;;;;19.04;40.00;99687.47;4993077;28;98928;-74
2023/03/07 02:38:03;;;;;;;0.40;0.30;;;;;;;19.06;39.93;99687.28;4990741;28;98784;-75
2023/03/07 02:40:31;;;;;;;0.20;0.20;;;;;;;19.10;40.01;99688.59;4996145;28;96743;-74
2023/03/07 02:43:08;;;;;;;0.45;0.35;;;;;;;19.12;40.04;99691.13;4990724;28;96791;-74
2023/03/07 02:45:36;;;;;;;0.40;0.40;;;;;;;19.12;39.83;99680.25;4990961;28;100595;-74
2023/03/07 02:48:03;;;;;;;0.20;0.20;;;;;;;19.13;39.97;99680.03;4994913;28;96870;-74
2023/03/07 02:50:29;;;;;;;0.30;0.25;;;;;;;19.14;39.88;99678.16;4988638;28;96813;-74
2023/03/07 02:52:56;;;;;;;0.35;0.30;;;;;;;19.19;39.79;99678.44;4992912;28;97023;-74
2023/03/07 02:55:22;;;;;;;0.30;0.30;;;;;;;19.22;39.66;99678.88;4988848;28;99195;-74
2023/03/07 02:57:59;;;;;;;0.30;0.30;;;;;;;19.20;39.79;99683.69;4992356;28;100154;-74
2023/03/07 03:00:26;;;;;;;0.50;0.30;;;;;;;19.20;39.85;99675.50;4992911;28;97095;-74
2023/03/07 03:02:52;;;;;;;1.23;0.40;;;;;;;19.21;39.73;99677.19;4990306;28;97002;-74
2023/03/07 03:05:19;;;;;;;0.35;0.25;;;;;;;19.20;39.84;99667.34;4986703;28;100504;-74
2023/03/07 03:07:47;;;;;;;0.20;0.20;;;;;;;19.18;39.75;99671.31;4990065;28;98593;-74
2023/03/07 03:10:14;;;;;;;0.40;0.30;;;;;;;19.16;39.49;99670.66;4988216;28;96772;-74
2023/03/07 03:12:40;;;;;;;0.30;0.30;;;;;;;19.15;39.80;99677.97;4990892;28;97005;-73
2023/03/07 03:15:08;;;;;;;0.40;0.20;;;;;;;19.15;39.76;99682.56;4991491;28;98582;-74
2023/03/07 03:17:35;;;;;;;0.25;0.20;;;;;;;19.15;39.82;99677.97;4994550;28;96725;-74
2023/03/07 03:20:06;;;;;;;0.40;0.30;;;;;;;19.15;39.56;99671.69;4992771;28;96615;-74
2023/03/07 03:22:32;;;;;;;0.22;0.20;;;;;;;19.14;39.76;99675.44;4990248;28;96875;-75
2023/03/07 03:24:59;;;;;;;0.40;0.30;;;;;;;19.19;39.50;99673.84;4987352;28;99658;-74
2023/03/07 03:27:26;;;;;;;0.50;0.30;;;;;;;19.20;39.43;99675.50;4987018;28;97323;-74
2023/03/07 03:29:53;;;;;;;0.57;0.30;;;;;;;19.18;39.44;99674.03;4993169;28;96765;-74
2023/03/07 03:32:20;;;;;;;0.32;0.30;;;;;;;19.19;39.53;99670.25;4992526;28;96915;-74
2023/03/07 03:34:47;;;;;;;0.30;0.30;;;;;;;19.21;39.62;99674.47;4991812;28;99113;-74
2023/03/07 03:37:13;;;;;;;0.30;0.30;;;;;;;19.24;39.69;99670.53;4992053;28;99469;-74
2023/03/07 03:39:40;;;;;;;0.20;0.20;;;;;;;19.24;39.58;99663.19;4987908;28;96763;-74
2023/03/07 03:42:08;;;;;;;0.50;0.20;;;;;;;19.25;39.60;99661.31;4988030;28;96907;-74
2023/03/07 03:44:35;;;;;;;0.43;0.30;;;;;;;19.25;39.53;99661.31;4985679;28;100669;-74
2023/03/07 03:47:01;;;;;;;0.30;0.20;;;;;;;19.26;39.55;99663.00;4990499;28;96985;-74
2023/03/07 03:49:28;;;;;;;0.30;0.20;;;;;;;19.26;39.32;99663.00;4977590;28;98187;-74
2023/03/07 03:51:54;;;;;;;0.20;0.20;;;;;;;19.25;39.50;99650.44;4986805;28;96906;-74
2023/03/07 03:54:21;;;;;;;0.25;0.20;;;;;;;19.24;39.24;99649.59;4991533;28;98224;-74
2023/03/07 03:56:47;;;;;;;0.30;0.30;;;;;;;19.22;39.78;99645.38;4988147;28;99259;-74
2023/03/07 03:59:14;;;;;;;0.30;0.30;;;;;;;19.19;39.67;99646.59;5003397;28;96767;-74
2023/03/07 04:01:41;;;;;;;0.22;0.20;;;;;;;19.17;39.37;99645.97;4989835;28;97030;-74
2023/03/07 04:04:08;;;;;;;0.30;0.30;;;;;;;19.17;39.53;99642.41;4989259;28;99858;-74
2023/03/07 04:06:36;;;;;;;0.30;0.30;;;;;;;19.16;39.92;99638.00;4989451;28;99477;-74
2023/03/07 04:09:04;;;;;;;0.20;0.20;;;;;;;19.19;39.49;99634.88;4990277;28;96703;-74
2023/03/07 04:11:31;;;;;;;0.30;0.20;;;;;;;19.19;39.55;99624.00;4993456;28;96549;-74
2023/03/07 04:13:58;;;;;;;0.20;0.20;;;;;;;19.19;39.72;99624.84;4998483;28;98650;-74
2023/03/07 04:16:24;;;;;;;0.32;0.20;;;;;;;19.19;39.71;99629.44;4987412;28;97268;-74
2023/03/07 04:18:52;;;;;;;0.43;0.32;;;;;;;19.17;39.55;99620.63;4958808;28;96815;-73
2023/03/07 04:21:19;;;;;;;0.40;0.30;;;;;;;19.18;39.82;99619.59;4989356;28;96914;-74
2023/03/07 04:23:54;;;;;;;0.35;0.20;;;;;;;19.20;40.02;99612.91;4984869;28;99747;-74
2023/03/07 04:26:22;;;;;;;0.35;0.30;;;;;;;19.23;39.67;99608.97;4986698;28;96801;-74
2023/03/07 04:28:49;;;;;;;0.20;0.20;;;;;;;19.24;39.77;99600.59;4993338;28;96758;-74
2023/03/07 04:31:22;;;;;;;0.38;0.20;;;;;;;19.24;39.44;99605.19;4985780;28;96752;-74
2023/03/07 04:33:49;;;;;;;0.38;0.30;;;;;;;19.22;39.40;99599.94;4998207;28;96775;-74
2023/03/07 04:36:16;;;;;;;0.20;0.20;;;;;;;19.24;39.30;99603.31;4992800;28;97208;-74
2023/03/07 04:38:45;;;;;;;0.35;0.30;;;;;;;19.24;39.42;99594.31;4989735;28;96964;-74
2023/03/07 04:41:25;;;;;;;0.20;0.20;;;;;;;19.25;39.39;99593.28;4987672;28;96783;-74
2023/03/07 04:44:20;;;;;;;0.22;0.20;;;;;;;19.23;39.71;99589.91;4983163;28;97793;-74
2023/03/07 04:46:47;;;;;;;0.25;0.20;;;;;;;19.24;39.72;99586.16;4988102;28;98810;-74
2023/03/07 04:49:14;;;;;;;0.20;0.20;;;;;;;19.25;39.57;99587.81;4991840;28;97237;-74
2023/03/07 04:51:41;;;;;;;0.60;0.20;;;;;;;19.22;39.46;99585.50;4984851;28;97236;-74
2023/03/07 04:54:10;;;;;;;0.32;0.20;;;;;;;19.22;39.23;99585.50;4983082;28;97724;-74
2023/03/07 04:56:37;;;;;;;0.13;0.13;;;;;;;19.20;39.70;99577.53;4982804;28;98459;-74
2023/03/07 04:59:05;;;;;;;0.30;0.20;;;;;;;19.17;39.37;99582.53;4997247;28;96701;-74
2023/03/07 05:01:31;;;;;;;0.35;0.30;;;;;;;19.15;39.83;99576.44;4988771;28;97090;-74
2023/03/07 05:03:59;;;;;;;0.20;0.20;;;;;;;19.16;39.43;99575.41;4992456;28;97944;-74
2023/03/07 05:06:26;;;;;;;0.20;0.20;;;;;;;19.19;39.41;99577.72;4987238;28;99740;-74
2023/03/07 05:08:53;;;;;;;0.47;0.20;;;;;;;19.17;39.66;99566.19;4989235;28;96897;-74
2023/03/07 05:11:19;;;;;;;0.20;0.20;;;;;;;19.15;39.63;99569.09;4990138;28;96767;-74
2023/03/07 05:13:47;;;;;;;0.95;0.45;;;;;;;19.14;39.84;99567.44;4987561;28;100411;-74
2023/03/07 05:16:17;;;;;;;0.40;0.30;;;;;;;19.14;39.43;99561.97;4986014;28;99419;-74
2023/03/07 05:18:44;;;;;;;0.13;0.13;;;;;;;19.18;39.49;99566.00;4988885;28;96703;-74
2023/03/07 05:21:11;;;;;;;0.28;0.20;;;;;;;19.17;39.56;99567.03;4992442;28;96805;-73
2023/03/07 05:23:38;;;;;;;0.40;0.20;;;;;;;19.20;39.75;99565.81;4987372;28;100524;-74
2023/03/07 05:26:06;;;;;;;0.20;0.20;;;;;;;19.17;39.53;99556.16;4984862;28;99190;-74
2023/03/07 05:28:33;;;;;;;0.32;0.30;;;;;;;19.19;39.95;99561.41;5000265;28;98113;-74
2023/03/07 05:30:59;;;;;;;0.30;0.30;;;;;;;19.19;39.50;99556.78;4989746;28;97439;-74
2023/03/07 05:33:26;;;;;;;0.13;0.13;;;;;;;19.22;39.46;99555.56;4986474;28;97417;-74
2023/03/07 05:35:54;;;;;;;0.32;0.30;;;;;;;19.22;39.46;99558.28;4986897;28;97417;-73
2023/03/07 05:38:21;;;;;;;0.22;0.20;;;;;;;19.22;39.35;99553.69;4991371;28;97118;-74
2023/03/07 05:40:48;;;;;;;0.20;0.20;;;;;;;19.22;39.42;99556.41;4988808;28;96949;-74
2023/03/07 05:43:14;;;;;;;0.30;0.22;;;;;;;19.23;39.37;99559.97;4988092;28;100444;-74
2023/03/07 05:45:41;;;;;;;0.20;0.20;;;;;;;19.22;39.55;99561.00;5001733;28;99222;-74
2023/03/07 05:48:08;;;;;;;0.57;0.30;;;;;;;19.19;39.53;99564.13;4988211;28;97327;-74
2023/03/07 05:50:37;;;;;;;0.25;0.20;;;;;;;19.16;39.38;99557.19;4975133;28;96777;-74
2023/03/07 05:53:03;;;;;;;0.32;0.20;;;;;;;19.18;39.31;99560.56;4989562;28;97827;-74
2023/03/07 05:55:30;;;;;;;0.22;0.22;;;;;;;19.14;39.30;99559.25;4990304;28;99374;-74
2023/03/07 05:57:58;;;;;;;0.30;0.22;;;;;;;19.16;39.74;99559.06;4985525;28;97118;-74
2023/03/07 06:00:25;;;;;;;0.20;0.20;;;;;;;19.15;39.68;99558.22;4999020;28;96934;-74
2023/03/07 06:02:55;;;;;;;0.30;0.30;;;;;;;19.16;39.64;99553.63;4997037;28;98698;-74
2023/03/07 06:05:22;;;;;;;0.38;0.30;;;;;;;19.16;39.31;99554.47;4989510;28;99321;-74
2023/03/07 06:07:51;;;;;;;0.22;0.20;;;;;;;19.15;39.74;99563.66;4990565;28;96826;-74
2023/03/07 06:10:17;;;;;;;0.10;0.10;;;;;;;19.17;39.47;99555.31;4990517;28;97215;-74
2023/03/07 06:12:48;;;;;;;0.30;0.28;;;;;;;19.19;39.42;99556.78;4989413;28;98030;-74
2023/03/07 06:15:15;;;;;;;0.25;0.25;;;;;;;19.22;39.63;99561.00;4990547;28;96676;-74
2023/03/07 06:17:42;;;;;;;0.10;0.10;;;;;;;19.20;39.42;99558.47;4982424;28;97517;-74
2023/03/07 06:20:10;;;;;;;0.30;0.20;;;;;;;19.20;39.58;99553.03;4986616;28;97149;-74
2023/03/07 06:22:37;;;;;;;0.20;0.20;;;;;;;19.20;39.66;99557.63;4998337;28;100765;-74
2023/03/07 06:25:05;;;;;;;0.17;0.15;;;;;;;19.20;39.58;99554.91;4970801;28;98582;-74
2023/03/07 06:27:35;;;;;;;0.10;0.10;;;;;;;19.19;39.33;99551.34;4987081;28;96856;-74
2023/03/07 06:30:04;;;;;;;0.20;0.17;;;;;;;19.19;39.37;99548.63;4987313;28;96910;-74
2023/03/07 06:32:31;;;;;;;0.20;0.20;;;;;;;19.18;39.40;99555.09;4985475;28;97527;-75
2023/03/07 06:34:58;;;;;;;0.20;0.17;;;;;;;19.18;39.34;99557.84;4988477;28;99922;-74
2023/03/07 06:37:25;;;;;;;0.20;0.10;;;;;;;19.17;39.57;99549.88;4980120;28;97550;-74
2023/03/07 06:39:53;;;;;;;0.20;0.20;;;;;;;19.15;39.31;99552.78;4993589;28;97355;-74
2023/03/07 06:42:19;;;;;;;0.20;0.20;;;;;;;19.13;39.57;99554.00;4985832;28;99458;-74
2023/03/07 06:44:46;;;;;;;0.25;0.20;;;;;;;19.13;39.40;99556.72;4971014;28;98693;-74
2023/03/07 06:47:13;;;;;;;0.30;0.30;;;;;;;19.11;39.64;99565.09;4986048;28;96903;-74
2023/03/07 06:49:40;;;;;;;0.30;0.20;;;;;;;19.10;39.66;99568.84;4990299;28;97436;-74
2023/03/07 06:52:07;;;;;;;0.40;0.20;;;;;;;19.11;39.50;99565.09;4991891;28;98765;-75
2023/03/07 06:54:33;;;;;;;0.15;0.13;;;;;;;19.14;39.76;99570.16;4987975;28;99459;-74
2023/03/07 06:57:00;;;;;;;0.30;0.20;;;;;;;19.15;39.26;99569.09;4990268;28;96778;-74
2023/03/07 06:59:26;;;;;;;0.20;0.20;;;;;;;19.15;39.64;99571.84;4987320;28;97577;-74
2023/03/07 07:01:53;;;;;;;0.20;0.20;;;;;;;19.17;39.60;99566.19;4983831;28;99696;-74
2023/03/07 07:04:21;;;;;;;0.20;0.20;;;;;;;19.17;39.45;99566.19;5004449;28;99334;-74
2023/03/07 07:06:49;;;;;;;0.43;0.30;;;;;;;19.20;39.64;99571.25;4989693;28;98496;-74
2023/03/07 07:09:15;;;;;;;0.22;0.20;;;;;;;19.20;39.23;99569.38;4985218;28;97128;-74
2023/03/07 07:11:42;;;;;;;0.20;0.20;;;;;;;19.22;39.61;99580.06;4985127;28;100477;-74
2023/03/07 07:14:11;;;;;;;0.20;0.20;;;;;;;19.21;39.40;99573.78;4988433;28;96957;-73
2023/03/07 07:16:38;;;;;;;0.20;0.20;;;;;;;19.22;39.55;99571.88;4975832;28;97498;-74
2023/03/07 07:19:06;;;;;;;0.60;0.20;;;;;;;19.21;39.47;99576.50;5004945;28;96802;-72
2023/03/07 07:21:34;;;;;;;0.20;0.20;;;;;;;19.21;39.22;99590.09;4982867;28;96988;-73
2023/03/07 07:24:01;;;;;;;0.10;0.10;;;;;;;19.19;39.16;99585.88;4988219;28;96868;-72
2023/03/07 07:26:28;;;;;;;0.20;0.20;;;;;;;19.18;39.11;99579.59;4973481;28;97148;-72
2023/03/07 07:28:56;;;;;;;0.20;0.20;;;;;;;19.16;39.30;99589.00;4988642;28;96871;-73
2023/03/07 07:31:23;;;;;;;0.20;0.20;;;;;;;19.17;39.38;99590.69;4987669;28;98242;-73
2023/03/07 07:33:50;;;;;;;0.20;0.20;;;;;;;19.16;39.13;99586.28;4992920;28;98878;-73
2023/03/07 07:36:17;;;;;;;0.40;0.20;;;;;;;19.14;39.61;99585.63;4990741;28;97106;-73
2023/03/07 07:38:43;;;;;;;0.20;0.10;;;;;;;19.16;39.30;99594.44;4993237;28;96813;-72
2023/03/07 07:41:11;;;;;;;0.20;0.20;;;;;;;19.14;39.28;99591.91;4993322;28;96961;-72
2023/03/07 07:43:37;;;;;;;0.32;0.30;;;;;;;19.14;39.52;99589.19;4993112;28;99489;-73
2023/03/07 07:46:17;;;;;;;0.20;0.20;;;;;;;19.14;39.76;99591.06;4993259;28;97182;-72
2023/03/07 07:48:46;;;;;;;0.20;0.17;;;;;;;19.14;39.27;99588.34;4993752;28;96921;-73
2023/03/07 07:51:13;;;;;;;0.32;0.20;;;;;;;19.15;39.44;99609.09;4991876;28;97028;-73
2023/03/07 07:53:40;;;;;;;0.20;0.20;;;;;;;19.15;39.63;99611.81;4992580;28;100163;-73
2023/03/07 07:56:07;;;;;;;0.28;0.28;;;;;;;19.16;39.32;99610.78;4993028;28;96711;-72
2023/03/07 07:58:34;;;;;;;0.30;0.20;;;;;;;19.15;39.52;99615.38;4993352;28;97095;-72
2023/03/07 08:01:17;;;;;;;0.45;0.30;;;;;;;19.15;39.24;99628.13;4989328;28;97783;-73
2023/03/07 08:03:44;;;;;;;0.20;0.20;;;;;;;19.12;39.49;99637.53;4989754;28;96867;-72
2023/03/07 08:06:12;;;;;;;0.28;0.20;;;;;;;19.12;39.62;99637.53;4986956;28;97373;-73
2023/03/07 08:08:38;;;;;;;0.20;0.20;;;;;;;19.09;39.51;99639.81;4993572;28;96718;-73
2023/03/07 08:11:05;;;;;;;0.10;0.10;;;;;;;19.09;39.48;99642.53;4991878;28;97639;-73
2023/03/07 08:13:31;;;;;;;0.20;0.20;;;;;;;19.09;39.66;99637.91;4990452;28;99706;-73
2023/03/07 08:15:58;;;;;;;0.20;0.10;;;;;;;19.10;39.63;99636.03;4991614;28;97063;-73
2023/03/07 08:18:25;;;;;;;0.20;0.20;;;;;;;19.11;39.82;99644.00;4991256;28;97252;-73
2023/03/07 08:20:51;;;;;;;0.22;0.20;;;;;;;19.12;39.47;99647.56;4992410;28;96832;-73
2023/03/07 08:23:18;;;;;;;0.17;0.13;;;;;;;19.12;39.34;99653.03;4992077;28;97343;-73
2023/03/07 08:25:44;;;;;;;0.20;0.20;;;;;;;19.11;39.59;99654.06;4994731;28;96664;-73
2023/03/07 08:28:11;;;;;;;0.40;0.15;;;;;;;19.10;39.58;99650.50;4994395;28;96676;-73
2023/03/07 08:30:37;;;;;;;0.10;0.10;;;;;;;19.12;39.75;99653.03;4992580;28;97904;-73
2023/03/07 08:33:04;;;;;;;0.30;0.20;;;;;;;19.14;39.75;99642.78;4993816;28;97067;-73
2023/03/07 08:35:30;;;;;;;0.20;0.20;;;;;;;19.13;39.34;99652.00;4994411;28;96913;-73
2023/03/07 08:38:00;;;;;;;0.20;0.20;;;;;;;19.11;39.47;99656.78;4993754;28;96802;-73
2023/03/07 08:40:28;;;;;;;0.43;0.30;;;;;;;19.08;39.48;99654.44;4993180;28;97539;-72
2023/03/07 08:42:55;;;;;;;0.20;0.20;;;;;;;19.08;39.65;99655.28;4993062;28;96751;-72
2023/03/07 08:45:22;;;;;;;0.20;0.20;;;;;;;19.09;39.60;99665.13;4994309;28;96826;-72
2023/03/07 08:47:53;;;;;;;0.30;0.22;;;;;;;19.08;39.51;99657.16;4994138;28;96716;-72
2023/03/07 08:50:25;;;;;;;0.22;0.20;;;;;;;19.08;39.46;99657.16;4992147;28;97094;-73
2023/03/07 08:52:51;;;;;;;0.10;0.10;;;;;;;19.08;39.36;99657.16;4991212;28;100139;-73
2023/03/07 08:55:19;;;;;;;0.20;0.20;;;;;;;19.04;39.63;99657.56;4993123;28;97601;-72
2023/03/07 08:57:46;;;;;;;0.10;0.10;;;;;;;19.08;39.50;99652.56;4994177;28;97025;-72
2023/03/07 09:00:14;;;;;;;0.10;0.10;;;;;;;19.10;39.80;99652.38;4993926;28;97232;-72
2023/03/07 09:02:41;;;;;;;0.20;0.15;;;;;;;19.10;39.82;99650.50;4990408;28;96920;-72
2023/03/07 09:05:08;;;;;;;0.20;0.20;;;;;;;19.10;39.41;99647.78;4992555;28;97118;-73
2023/03/07 09:07:35;;;;;;;0.10;0.10;;;;;;;19.08;39.60;99647.13;4993461;28;96877;-73
2023/03/07 09:10:04;;;;;;;0.43;0.20;;;;;;;19.05;39.65;99648.34;4993306;28;98338;-73
2023/03/07 09:12:33;;;;;;;0.25;0.20;;;;;;;19.05;39.87;99650.22;4991456;28;96656;-73
2023/03/07 09:14:59;;;;;;;0.28;0.20;;;;;;;19.05;39.59;99652.94;4993417;28;96805;-73
2023/03/07 09:17:26;;;;;;;0.20;0.20;;;;;;;19.04;39.62;99654.00;4993356;28;96795;-73
2023/03/07 09:19:52;;;;;;;0.20;0.20;;;;;;;19.04;39.79;99651.25;4993359;28;97141;-72
2023/03/07 09:22:19;;;;;;;0.20;0.20;;;;;;;19.05;39.42;99656.50;4992407;28;97599;-73
2023/03/07 09:24:45;;;;;;;0.20;0.10;;;;;;;19.08;39.39;99652.56;4993432;28;96736;-73
2023/03/07 09:27:12;;;;;;;0.30;0.20;;;;;;;19.09;39.60;99661.56;4991956;28;96893;-72
2023/03/07 09:29:38;;;;;;;0.20;0.20;;;;;;;19.08;39.59;99662.59;4993090;28;98225;-72
2023/03/07 09:32:05;;;;;;;0.32;0.30;;;;;;;19.08;39.59;99659.88;4990417;28;97608;-73
2023/03/07 09:34:31;;;;;;;0.10;0.10;;;;;;;19.07;39.59;99661.75;4993019;28;96678;-73
2023/03/07 09:36:58;;;;;;;0.30;0.20;;;;;;;19.08;39.64;99657.16;4992029;28;96698;-73
2023/03/07 09:39:24;;;;;;;0.28;0.20;;;;;;;19.09;39.46;99664.28;4991561;28;96674;-73
2023/03/07 09:42:03;;;;;;;0.20;0.20;;;;;;;19.08;39.51;99668.06;4992217;28;96980;-73
2023/03/07 09:45:19;;;;;;;0.20;0.10;;;;;;;19.07;39.58;99671.81;4993391;28;96956;-73
2023/03/07 09:48:04;;;;;;;0.40;0.20;;;;;;;19.05;39.47;99666.56;4992077;28;96760;-72
2023/03/07 09:50:47;;;;;;;0.10;0.10;;;;;;;19.04;39.46;99673.88;4993265;28;96714;-73
2023/03/07 09:53:30;;;;;;;0.20;0.20;;;;;;;19.05;39.62;99664.69;4992294;28;97061;-73
2023/03/07 09:56:00;;;;;;;0.10;0.10;;;;;;;19.08;39.65;99674.34;4992819;28;96759;-73
2023/03/07 09:58:27;;;;;;;0.20;0.20;;;;;;;19.07;39.62;99677.25;4993373;28;96648;-72
2023/03/07 10:00:58;;;;;;;0.10;0.10;;;;;;;19.06;39.65;99668.25;4992660;28;97604;-73
2023/03/07 10:03:34;;;;;;;0.32;0.25;;;;;;;19.05;39.66;99667.41;4989894;28;97547;-73
2023/03/07 10:06:11;;;;;;;0.20;0.20;;;;;;;19.07;39.73;99675.38;4991465;28;97043;-73
2023/03/07 10:08:37;;;;;;;0.20;0.20;;;;;;;19.06;39.37;99673.69;4992346;28;96653;-73
2023/03/07 10:11:17;;;;;;;0.10;0.10;;;;;;;19.10;39.35;99671.41;4979778;28;96776;-73
2023/03/07 10:14:27;;;;;;;0.50;0.20;;;;;;;19.08;39.60;99666.16;4992309;28;98063;-73
2023/03/07 10:17:17;;;;;;;0.25;0.13;;;;;;;19.06;39.61;99668.25;4990199;28;96963;-73
2023/03/07 10:19:49;;;;;;;0.20;0.17;;;;;;;19.05;39.61;99666.56;4985259;28;96720;-73
2023/03/07 10:22:32;;;;;;;0.30;0.28;;;;;;;19.03;39.62;99672.19;4989868;28;96695;-73
2023/03/07 10:25:49;;;;;;;0.10;0.10;;;;;;;19.04;39.59;99671.16;4991421;28;96941;-73
2023/03/07 10:28:28;;;;;;;0.13;0.13;;;;;;;19.03;39.80;99671.34;4988535;28;96747;-74
2023/03/07 10:31:19;;;;;;;0.10;0.10;;;;;;;19.03;39.31;99671.34;4990453;28;97100;-73
2023/03/07 10:33:48;;;;;;;0.20;0.20;;;;;;;19.01;39.92;99676.13;4981653;28;97014;-73
2023/03/07 10:36:31;;;;;;;0.20;0.20;;;;;;;19.04;39.70;99675.75;4992358;28;97274;-73
2023/03/07 10:39:05;;;;;;;0.30;0.25;;;;;;;19.04;39.70;99676.59;4981384;28;96618;-72
2023/03/07 10:41:31;;;;;;;0.10;0.10;;;;;;;19.07;39.72;99674.53;4992402;28;96686;-72
2023/03/07 10:43:58;;;;;;;0.20;0.17;;;;;;;19.08;39.59;99676.22;4983410;28;97834;-73
2023/03/07 10:46:29;;;;;;;0.20;0.20;;;;;;;19.09;39.66;99672.47;4986669;28;97091;-73
2023/03/07 10:49:05;;;;;;;0.13;0.10;;;;;;;19.08;39.60;99671.63;4987228;28;96899;-73
2023/03/07 10:51:43;;;;;;;0.10;0.10;;;;;;;19.08;39.41;99671.63;4991200;28;96725;-74
2023/03/07 10:54:15;;;;;;;0.10;0.10;;;;;;;19.07;39.62;99674.53;4989885;28;97028;-73
2023/03/07 10:57:06;;;;;;;0.25;0.20;;;;;;;19.08;39.55;99677.06;4995740;28;97388;-73
2023/03/07 10:59:33;;;;;;;0.20;0.20;;;;;;;19.10;39.19;99674.16;4995351;28;97048;-74
2023/03/07 11:02:02;;;;;;;0.20;0.20;;;;;;;19.09;39.26;99667.00;4995843;28;96886;-75
2023/03/07 11:04:42;;;;;;;0.20;0.20;;;;;;;19.08;39.60;99668.06;4985269;28;97606;-75
2023/03/07 11:07:26;;;;;;;0.20;0.20;;;;;;;19.08;39.67;99662.59;4995314;28;97222;-74
2023/03/07 11:09:54;;;;;;;0.10;0.10;;;;;;;19.04;39.49;99667.59;4987429;28;97052;-74
2023/03/07 11:12:23;;;;;;;0.10;0.10;;;;;;;19.05;39.52;99669.28;4993378;28;96770;-73
2023/03/07 11:15:11;;;;;;;0.20;0.20;;;;;;;19.05;39.65;99664.69;4993548;28;97717;-74
2023/03/07 11:17:46;;;;;;;0.30;0.20;;;;;;;19.07;39.68;99669.94;4984876;28;96808;-74
2023/03/07 11:20:22;;;;;;;;;;;;;;;19.09;39.33;99670.56;4995451;28;97463;-74
2023/03/07 11:22:50;;;;;;;0.22;0.20;;;;;;;19.09;39.68;99672.47;4993534;28;97434;-74
2023/03/07 11:25:24;;;;;;;0.20;0.20;;;;;;;19.09;39.44;99669.72;4987742;28;99939;-74
2023/03/07 11:27:56;;;;;;;0.20;0.20;;;;;;;19.10;39.41;99680.44;4974703;28;97311;-74
2023/03/07 11:30:24;;;;;;;0.30;0.20;;;;;;;19.07;39.58;99679.97;4983624;28;97220;-74
2023/03/07 11:32:57;;;;;;;0.10;0.10;;;;;;;19.07;39.74;99667.22;4987030;28;96878;-74
2023/03/07 11:35:39;;;;;;;0.10;0.10;;;;;;;19.07;39.32;99669.09;4986683;28;96880;-74
2023/03/07 11:38:05;;;;;;;0.20;0.20;;;;;;;19.07;39.83;99675.38;4982404;28;97052;-74
2023/03/07 11:40:55;;;;;;;0.15;0.13;;;;;;;19.08;39.25;99665.31;4988459;28;96795;-74
2023/03/07 11:43:36;;;;;;;0.28;0.20;;;;;;;19.08;39.45;99668.06;4990598;28;99175;-74
2023/03/07 11:46:08;;;;;;;0.13;0.13;;;;;;;19.08;39.61;99665.31;4983069;28;96969;-74
2023/03/07 11:48:41;;;;;;;0.10;0.10;;;;;;;19.07;39.35;99664.47;4968774;28;98196;-74